Terminal Aerodrome Forecast
Issued by NWS

Home | Current Version | Previous Version | Text Only | Print | Product List | Glossary On
Versions: 1 2 3 4 5 6 7 8 9 10 11 12 13 14 15 16
025
FTUS46 KHNX 162323
TAFVIS
TAF
KVIS 162323Z 1700/1724 VRB04KT 6SM HZ SCT200
     FM170300 VRB03KT 6SM BR SCT025
     FM170600 VRB03KT 6SM BR BKN025=

USA.gov is the U.S. government's official web portal to all federal, state and local government web resources and services.